SWA3383 KMCO-KDCA
Flight info
| Callsign | SWA3383 |
|---|---|
| Flight time | 1h 41m |
| Altitude | 37000 |
| Route | FATHE4 VIYAP Q87 RAYVO Q113 AARNN WAVES CAPSS4 |
| Aircraft | B38M/M-SADE2E3GHIJ4J7P2RWZ/LB1D1 |
Departure
| Time | 2026-04-20 18:53 |
|---|---|
| Airport | Orlando International Airport (KMCO) |
Arrival
| Time | 2026-04-20 20:34 |
|---|---|
| Airport | Ronald Reagan Washington National Airport (KDCA) |
| Time | Latitude | Longitude | Altitude | Speed | Heading |
|---|---|---|---|---|---|
| 2026-04-20 18:27 | 28.42663 | -81.30042 | 104 ft | 0 kts | 233° |
| 2026-04-20 18:40 | 28.42667 | -81.30036 | 104 ft | 4 kts | 235° |
| 2026-04-20 18:40 | 28.42680 | -81.30009 | 104 ft | 4 kts | 252° |
| 2026-04-20 18:40 | 28.42684 | -81.29979 | 103 ft | 4 kts | 268° |
| 2026-04-20 18:41 | 28.42686 | -81.29949 | 103 ft | 4 kts | 258° |
| 2026-04-20 18:41 | 28.42693 | -81.29919 | 105 ft | 4 kts | 250° |
| 2026-04-20 18:41 | 28.42706 | -81.29893 | 105 ft | 4 kts | 225° |
| 2026-04-20 18:41 | 28.42724 | -81.29882 | 104 ft | 1 kts | 179° |
| 2026-04-20 18:42 | 28.42725 | -81.29882 | 104 ft | 2 kts | 179° |
| 2026-04-20 18:42 | 28.42724 | -81.29882 | 105 ft | 0 kts | 178° |
| 2026-04-20 18:46 | 28.42717 | -81.29881 | 104 ft | 3 kts | 178° |
| 2026-04-20 18:47 | 28.42673 | -81.29880 | 105 ft | 9 kts | 178° |
| 2026-04-20 18:47 | 28.42599 | -81.29834 | 101 ft | 18 kts | 113° |
| 2026-04-20 18:47 | 28.42492 | -81.29789 | 101 ft | 17 kts | 177° |
| 2026-04-20 18:47 | 28.42370 | -81.29794 | 101 ft | 18 kts | 182° |
| 2026-04-20 18:48 | 28.42280 | -81.29727 | 98 ft | 18 kts | 86° |
| 2026-04-20 18:48 | 28.42292 | -81.29569 | 98 ft | 20 kts | 84° |
| 2026-04-20 18:48 | 28.42288 | -81.29439 | 108 ft | 15 kts | 95° |
| 2026-04-20 18:48 | 28.42287 | -81.29320 | 109 ft | 16 kts | 90° |
| 2026-04-20 18:49 | 28.42289 | -81.29195 | 110 ft | 16 kts | 89° |
| 2026-04-20 18:49 | 28.42302 | -81.29071 | 108 ft | 17 kts | 77° |
| 2026-04-20 18:49 | 28.42343 | -81.28932 | 110 ft | 19 kts | 71° |
| 2026-04-20 18:49 | 28.42390 | -81.28789 | 109 ft | 20 kts | 69° |
| 2026-04-20 18:50 | 28.42422 | -81.28687 | 110 ft | 21 kts | 71° |
| 2026-04-20 18:50 | 28.42468 | -81.28530 | 110 ft | 21 kts | 71° |
| 2026-04-20 18:50 | 28.42488 | -81.28371 | 105 ft | 19 kts | 131° |
| 2026-04-20 18:50 | 28.42328 | -81.28362 | 106 ft | 18 kts | 180° |
| 2026-04-20 18:51 | 28.42240 | -81.28362 | 106 ft | 20 kts | 179° |
| 2026-04-20 18:51 | 28.42092 | -81.28360 | 102 ft | 24 kts | 179° |
| 2026-04-20 18:51 | 28.41930 | -81.28348 | 100 ft | 22 kts | 149° |
| 2026-04-20 18:51 | 28.41948 | -81.28238 | 101 ft | 15 kts | 20° |
| 2026-04-20 18:52 | 28.42048 | -81.28234 | 103 ft | 15 kts | 359° |
| 2026-04-20 18:52 | 28.42316 | -81.28235 | 105 ft | 75 kts | 359° |
| 2026-04-20 18:52 | 28.43090 | -81.28242 | 99 ft | 144 kts | 359° |
| 2026-04-20 18:52 | 28.44196 | -81.28296 | 556 ft | 167 kts | 1° |
| 2026-04-20 18:53 | 28.45395 | -81.28296 | 1323 ft | 178 kts | 7° |
| 2026-04-20 18:53 | 28.46626 | -81.27980 | 1971 ft | 191 kts | 24° |
| 2026-04-20 18:53 | 28.47842 | -81.27321 | 2967 ft | 197 kts | 27° |
| 2026-04-20 18:53 | 28.49154 | -81.26597 | 3736 ft | 217 kts | 26° |
| 2026-04-20 18:54 | 28.50555 | -81.25835 | 4423 ft | 236 kts | 25° |
| 2026-04-20 18:54 | 28.52193 | -81.25333 | 5105 ft | 256 kts | 4° |
| 2026-04-20 18:54 | 28.53997 | -81.25193 | 6061 ft | 262 kts | 3° |
| 2026-04-20 18:54 | 28.55829 | -81.25135 | 6468 ft | 263 kts | 357° |
| 2026-04-20 18:55 | 28.57656 | -81.25190 | 6592 ft | 262 kts | 357° |
| 2026-04-20 18:55 | 28.59471 | -81.25382 | 6722 ft | 262 kts | 351° |
| 2026-04-20 18:55 | 28.61265 | -81.25664 | 6887 ft | 261 kts | 351° |
| 2026-04-20 18:55 | 28.63084 | -81.25936 | 7137 ft | 266 kts | 352° |
| 2026-04-20 18:56 | 28.64907 | -81.26195 | 8155 ft | 263 kts | 351° |
| 2026-04-20 18:56 | 28.66743 | -81.26454 | 9148 ft | 269 kts | 351° |
| 2026-04-20 18:56 | 28.68633 | -81.26718 | 9965 ft | 278 kts | 352° |
| 2026-04-20 18:56 | 28.70589 | -81.26987 | 10710 ft | 290 kts | 351° |
| 2026-04-20 18:57 | 28.72664 | -81.27273 | 11139 ft | 311 kts | 351° |
| 2026-04-20 18:57 | 28.74872 | -81.27575 | 11691 ft | 325 kts | 350° |
| 2026-04-20 18:57 | 28.77143 | -81.27888 | 12428 ft | 333 kts | 351° |
| 2026-04-20 18:57 | 28.79460 | -81.28205 | 13265 ft | 337 kts | 350° |
| 2026-04-20 18:58 | 28.81802 | -81.28526 | 14124 ft | 341 kts | 350° |
| 2026-04-20 18:58 | 28.84173 | -81.28827 | 14870 ft | 346 kts | 352° |
| 2026-04-20 18:58 | 28.86592 | -81.29030 | 15649 ft | 350 kts | 351° |
| 2026-04-20 18:58 | 28.89041 | -81.29241 | 16387 ft | 355 kts | 351° |
| 2026-04-20 18:59 | 28.91519 | -81.29457 | 17122 ft | 359 kts | 350° |
| 2026-04-20 18:59 | 28.94017 | -81.29677 | 17829 ft | 363 kts | 350° |
| 2026-04-20 18:59 | 28.96554 | -81.29901 | 18542 ft | 368 kts | 349° |
| 2026-04-20 18:59 | 28.99118 | -81.30142 | 19190 ft | 370 kts | 348° |
| 2026-04-20 19:00 | 29.01691 | -81.30425 | 19827 ft | 373 kts | 348° |
| 2026-04-20 19:00 | 29.04282 | -81.30708 | 20450 ft | 376 kts | 348° |
| 2026-04-20 19:00 | 29.06899 | -81.30993 | 21080 ft | 380 kts | 348° |
| 2026-04-20 19:00 | 29.09547 | -81.31282 | 21671 ft | 383 kts | 348° |
| 2026-04-20 19:01 | 29.12224 | -81.31462 | 22286 ft | 388 kts | 350° |
| 2026-04-20 19:01 | 29.14939 | -81.31618 | 22879 ft | 392 kts | 350° |
| 2026-04-20 19:01 | 29.17671 | -81.31780 | 23468 ft | 395 kts | 350° |
| 2026-04-20 19:01 | 29.20432 | -81.31946 | 24009 ft | 398 kts | 350° |
| 2026-04-20 19:02 | 29.23212 | -81.32115 | 24476 ft | 401 kts | 349° |
| 2026-04-20 19:02 | 29.26014 | -81.32286 | 24966 ft | 404 kts | 349° |
| 2026-04-20 19:02 | 29.28831 | -81.32458 | 25431 ft | 407 kts | 349° |
| 2026-04-20 19:02 | 29.31667 | -81.32632 | 25904 ft | 410 kts | 349° |
| 2026-04-20 19:03 | 29.34524 | -81.32807 | 26357 ft | 413 kts | 348° |
| 2026-04-20 19:03 | 29.37402 | -81.32984 | 26809 ft | 415 kts | 348° |
| 2026-04-20 19:03 | 29.40294 | -81.33161 | 27245 ft | 418 kts | 348° |
| 2026-04-20 19:03 | 29.43199 | -81.33340 | 27672 ft | 421 kts | 348° |
| 2026-04-20 19:04 | 29.46095 | -81.33518 | 28093 ft | 423 kts | 348° |
| 2026-04-20 19:04 | 29.49081 | -81.33701 | 28512 ft | 426 kts | 348° |
| 2026-04-20 19:04 | 29.52019 | -81.33882 | 28924 ft | 429 kts | 348° |
| 2026-04-20 19:04 | 29.55046 | -81.34069 | 29381 ft | 431 kts | 348° |
| 2026-04-20 19:05 | 29.58002 | -81.34251 | 29946 ft | 430 kts | 348° |
| 2026-04-20 19:05 | 29.60987 | -81.34435 | 30393 ft | 431 kts | 348° |
| 2026-04-20 19:05 | 29.63997 | -81.34615 | 30706 ft | 434 kts | 348° |
| 2026-04-20 19:05 | 29.67015 | -81.34787 | 31063 ft | 436 kts | 347° |
| 2026-04-20 19:06 | 29.70053 | -81.34961 | 31407 ft | 438 kts | 347° |
| 2026-04-20 19:06 | 29.73102 | -81.35136 | 31741 ft | 440 kts | 347° |
| 2026-04-20 19:06 | 29.76173 | -81.35312 | 32081 ft | 442 kts | 346° |
| 2026-04-20 19:06 | 29.79250 | -81.35489 | 32443 ft | 443 kts | 346° |
| 2026-04-20 19:07 | 29.82329 | -81.35665 | 32893 ft | 442 kts | 346° |
| 2026-04-20 19:07 | 29.85394 | -81.35840 | 33444 ft | 439 kts | 345° |
| 2026-04-20 19:07 | 29.88438 | -81.36016 | 34000 ft | 436 kts | 344° |
| 2026-04-20 19:07 | 29.91459 | -81.36190 | 34453 ft | 435 kts | 344° |
| 2026-04-20 19:08 | 29.94470 | -81.36363 | 34848 ft | 433 kts | 344° |
| 2026-04-20 19:08 | 30.00462 | -81.36708 | 35633 ft | 429 kts | 344° |
| 2026-04-20 19:08 | 30.03437 | -81.36879 | 36015 ft | 427 kts | 344° |
| 2026-04-20 19:09 | 30.06404 | -81.37050 | 36383 ft | 426 kts | 344° |
| 2026-04-20 19:09 | 30.09361 | -81.37221 | 36740 ft | 424 kts | 344° |
| 2026-04-20 19:09 | 30.12301 | -81.37391 | 37156 ft | 423 kts | 344° |
| 2026-04-20 19:09 | 30.15243 | -81.37561 | 37327 ft | 423 kts | 344° |
| 2026-04-20 19:10 | 30.18173 | -81.37731 | 37288 ft | 420 kts | 344° |
| 2026-04-20 19:10 | 30.24000 | -81.38068 | 37305 ft | 419 kts | 344° |
| 2026-04-20 19:11 | 30.29836 | -81.38407 | 37301 ft | 419 kts | 344° |
| 2026-04-20 19:11 | 30.35661 | -81.38745 | 37305 ft | 419 kts | 344° |
| 2026-04-20 19:12 | 30.41492 | -81.39084 | 37305 ft | 420 kts | 344° |
| 2026-04-20 19:12 | 30.47322 | -81.39408 | 37302 ft | 420 kts | 344° |
| 2026-04-20 19:13 | 30.53161 | -81.39716 | 37319 ft | 420 kts | 344° |
| 2026-04-20 19:13 | 30.58998 | -81.40025 | 37323 ft | 420 kts | 344° |
| 2026-04-20 19:14 | 30.64834 | -81.40335 | 37322 ft | 420 kts | 344° |
| 2026-04-20 19:14 | 30.70670 | -81.40645 | 37342 ft | 419 kts | 344° |
| 2026-04-20 19:15 | 30.76482 | -81.40954 | 37312 ft | 418 kts | 344° |
| 2026-04-20 19:15 | 30.82261 | -81.41262 | 37313 ft | 418 kts | 344° |
| 2026-04-20 19:16 | 30.88078 | -81.41572 | 37310 ft | 418 kts | 344° |
| 2026-04-20 19:16 | 30.93886 | -81.41882 | 37314 ft | 419 kts | 344° |
| 2026-04-20 19:17 | 30.99702 | -81.42192 | 37332 ft | 417 kts | 344° |
| 2026-04-20 19:17 | 31.05485 | -81.42502 | 37317 ft | 416 kts | 344° |
| 2026-04-20 19:18 | 31.11268 | -81.42812 | 37309 ft | 416 kts | 344° |
| 2026-04-20 19:18 | 31.17063 | -81.43122 | 37313 ft | 416 kts | 344° |
| 2026-04-20 19:19 | 31.22860 | -81.43405 | 37328 ft | 422 kts | 348° |
| 2026-04-20 19:19 | 31.25840 | -81.42893 | 37358 ft | 448 kts | 3° |
| 2026-04-20 19:19 | 31.28804 | -81.41518 | 37346 ft | 463 kts | 10° |
| 2026-04-20 19:20 | 31.34699 | -81.38417 | 37326 ft | 466 kts | 11° |
| 2026-04-20 19:20 | 31.40591 | -81.35237 | 37323 ft | 466 kts | 11° |
| 2026-04-20 19:21 | 31.46469 | -81.32047 | 37317 ft | 466 kts | 11° |
| 2026-04-20 19:21 | 31.52353 | -81.28847 | 37347 ft | 466 kts | 11° |
| 2026-04-20 19:22 | 31.58213 | -81.25656 | 37303 ft | 463 kts | 11° |
| 2026-04-20 19:22 | 31.64059 | -81.22469 | 37306 ft | 464 kts | 11° |
| 2026-04-20 19:23 | 31.69911 | -81.19273 | 37286 ft | 464 kts | 11° |
| 2026-04-20 19:23 | 31.75769 | -81.16070 | 37282 ft | 464 kts | 11° |
| 2026-04-20 19:24 | 31.81619 | -81.12867 | 37273 ft | 464 kts | 11° |
| 2026-04-20 19:24 | 31.87457 | -81.09665 | 37268 ft | 464 kts | 11° |
| 2026-04-20 19:25 | 31.93306 | -81.06454 | 37267 ft | 464 kts | 11° |
| 2026-04-20 19:25 | 31.99156 | -81.03234 | 37268 ft | 464 kts | 11° |
| 2026-04-20 19:26 | 32.04959 | -80.99990 | 37333 ft | 465 kts | 11° |
| 2026-04-20 19:26 | 32.10830 | -80.96706 | 37268 ft | 465 kts | 11° |
| 2026-04-20 19:27 | 32.16641 | -80.93452 | 37304 ft | 465 kts | 11° |
| 2026-04-20 19:27 | 32.22489 | -80.90172 | 37314 ft | 465 kts | 11° |
| 2026-04-20 19:28 | 32.28344 | -80.86884 | 37314 ft | 467 kts | 11° |
| 2026-04-20 19:28 | 32.34209 | -80.83586 | 37317 ft | 468 kts | 11° |
| 2026-04-20 19:29 | 32.40091 | -80.80273 | 37299 ft | 468 kts | 11° |
| 2026-04-20 19:29 | 32.45971 | -80.76957 | 37292 ft | 468 kts | 11° |
| 2026-04-20 19:30 | 32.51856 | -80.73633 | 37301 ft | 468 kts | 11° |
| 2026-04-20 19:30 | 32.57727 | -80.70312 | 37320 ft | 469 kts | 11° |
| 2026-04-20 19:31 | 32.63610 | -80.66979 | 37296 ft | 469 kts | 11° |
| 2026-04-20 19:31 | 32.69501 | -80.63637 | 37289 ft | 469 kts | 12° |
| 2026-04-20 19:32 | 32.75352 | -80.60160 | 37265 ft | 471 kts | 14° |
| 2026-04-20 19:32 | 32.81206 | -80.56681 | 37348 ft | 471 kts | 15° |
| 2026-04-20 19:33 | 32.87068 | -80.53193 | 37293 ft | 471 kts | 15° |
| 2026-04-20 19:33 | 32.92906 | -80.49715 | 37280 ft | 473 kts | 15° |
| 2026-04-20 19:34 | 32.98794 | -80.46225 | 37297 ft | 473 kts | 13° |
| 2026-04-20 19:34 | 33.04680 | -80.42722 | 37277 ft | 473 kts | 14° |
| 2026-04-20 19:35 | 33.10559 | -80.39209 | 37266 ft | 473 kts | 14° |
| 2026-04-20 19:35 | 33.16445 | -80.35687 | 37268 ft | 473 kts | 14° |
| 2026-04-20 19:36 | 33.22324 | -80.32163 | 37267 ft | 473 kts | 14° |
| 2026-04-20 19:36 | 33.27252 | -80.29206 | 37268 ft | 473 kts | 14° |
| 2026-04-20 19:37 | 33.34081 | -80.25100 | 37291 ft | 472 kts | 14° |
| 2026-04-20 19:37 | 33.38955 | -80.22166 | 37276 ft | 472 kts | 14° |
| 2026-04-20 19:38 | 33.44820 | -80.18630 | 37275 ft | 472 kts | 14° |
| 2026-04-20 19:38 | 33.50693 | -80.15085 | 37272 ft | 473 kts | 14° |
| 2026-04-20 19:39 | 33.56578 | -80.11526 | 37329 ft | 475 kts | 15° |
| 2026-04-20 19:39 | 33.62453 | -80.07969 | 37270 ft | 471 kts | 15° |
| 2026-04-20 19:39 | 33.65273 | -80.05849 | 37255 ft | 490 kts | 29° |
| 2026-04-20 19:40 | 33.67866 | -80.03144 | 37283 ft | 494 kts | 30° |
| 2026-04-20 19:40 | 33.73081 | -79.97761 | 37278 ft | 495 kts | 31° |
| 2026-04-20 19:41 | 33.78280 | -79.92312 | 37269 ft | 496 kts | 31° |
| 2026-04-20 19:41 | 33.83464 | -79.86864 | 37283 ft | 493 kts | 31° |
| 2026-04-20 19:42 | 33.88608 | -79.81448 | 37268 ft | 492 kts | 31° |
| 2026-04-20 19:42 | 33.93763 | -79.76012 | 37271 ft | 494 kts | 31° |
| 2026-04-20 19:43 | 33.98095 | -79.71437 | 37270 ft | 495 kts | 31° |
| 2026-04-20 19:43 | 34.04108 | -79.65075 | 37303 ft | 495 kts | 31° |
| 2026-04-20 19:44 | 34.09270 | -79.59599 | 37252 ft | 493 kts | 32° |
| 2026-04-20 19:44 | 34.14399 | -79.54153 | 37257 ft | 494 kts | 31° |
| 2026-04-20 19:45 | 34.19555 | -79.48676 | 37257 ft | 493 kts | 31° |
| 2026-04-20 19:45 | 34.24700 | -79.43195 | 37256 ft | 494 kts | 31° |
| 2026-04-20 19:46 | 34.29857 | -79.37691 | 37285 ft | 496 kts | 32° |
| 2026-04-20 19:46 | 34.35031 | -79.32160 | 37255 ft | 496 kts | 32° |
| 2026-04-20 19:47 | 34.40207 | -79.26619 | 37254 ft | 496 kts | 32° |
| 2026-04-20 19:47 | 34.42859 | -79.23996 | 37233 ft | 484 kts | 22° |
| 2026-04-20 19:47 | 34.45733 | -79.22146 | 37271 ft | 473 kts | 17° |
| 2026-04-20 19:48 | 34.51648 | -79.18450 | 37272 ft | 475 kts | 17° |
| 2026-04-20 19:48 | 34.57570 | -79.14812 | 37237 ft | 478 kts | 17° |
| 2026-04-20 19:49 | 34.63469 | -79.11202 | 37243 ft | 478 kts | 17° |
| 2026-04-20 19:49 | 34.69404 | -79.07563 | 37245 ft | 478 kts | 17° |
| 2026-04-20 19:50 | 34.75342 | -79.03917 | 37290 ft | 478 kts | 17° |
| 2026-04-20 19:50 | 34.81298 | -79.00252 | 37234 ft | 480 kts | 18° |
| 2026-04-20 19:51 | 34.87260 | -78.96579 | 37236 ft | 481 kts | 18° |
| 2026-04-20 19:51 | 34.93237 | -78.92890 | 37238 ft | 481 kts | 18° |
| 2026-04-20 19:52 | 34.99204 | -78.89201 | 37274 ft | 481 kts | 18° |
| 2026-04-20 19:52 | 35.05172 | -78.85506 | 37241 ft | 481 kts | 18° |
| 2026-04-20 19:53 | 35.11135 | -78.81808 | 37200 ft | 481 kts | 19° |
| 2026-04-20 19:53 | 35.17104 | -78.78100 | 37214 ft | 481 kts | 19° |
| 2026-04-20 19:54 | 35.23077 | -78.74383 | 37276 ft | 481 kts | 19° |
| 2026-04-20 19:54 | 35.29036 | -78.70668 | 37235 ft | 480 kts | 19° |
| 2026-04-20 19:55 | 35.34985 | -78.66955 | 37232 ft | 481 kts | 19° |
| 2026-04-20 19:55 | 35.40922 | -78.63242 | 37241 ft | 482 kts | 19° |
| 2026-04-20 19:56 | 35.46891 | -78.59502 | 37235 ft | 482 kts | 19° |
| 2026-04-20 19:56 | 35.52869 | -78.55751 | 37212 ft | 482 kts | 19° |
| 2026-04-20 19:57 | 35.58842 | -78.51997 | 37219 ft | 482 kts | 19° |
| 2026-04-20 19:57 | 35.64817 | -78.48236 | 37217 ft | 482 kts | 19° |
| 2026-04-20 19:58 | 35.70786 | -78.44472 | 37263 ft | 482 kts | 19° |
| 2026-04-20 19:58 | 35.76740 | -78.40714 | 37216 ft | 480 kts | 19° |
| 2026-04-20 19:59 | 35.82684 | -78.36959 | 37215 ft | 480 kts | 19° |
| 2026-04-20 19:59 | 35.88628 | -78.33197 | 37228 ft | 481 kts | 19° |
| 2026-04-20 20:00 | 35.94571 | -78.29429 | 37248 ft | 480 kts | 20° |
| 2026-04-20 20:00 | 36.00507 | -78.25660 | 37227 ft | 479 kts | 20° |
| 2026-04-20 20:01 | 36.06438 | -78.21886 | 37217 ft | 480 kts | 20° |
| 2026-04-20 20:01 | 36.12367 | -78.18109 | 37224 ft | 480 kts | 20° |
| 2026-04-20 20:02 | 36.18297 | -78.14324 | 37250 ft | 480 kts | 20° |
| 2026-04-20 20:02 | 36.24220 | -78.10536 | 37220 ft | 479 kts | 20° |
| 2026-04-20 20:03 | 36.30142 | -78.06743 | 37221 ft | 479 kts | 20° |
| 2026-04-20 20:03 | 36.36068 | -78.02942 | 37213 ft | 479 kts | 20° |
| 2026-04-20 20:04 | 36.42150 | -77.99812 | 37220 ft | 472 kts | 14° |
| 2026-04-20 20:04 | 36.48286 | -77.96946 | 37211 ft | 471 kts | 13° |
| 2026-04-20 20:05 | 36.54430 | -77.94084 | 37212 ft | 472 kts | 13° |
| 2026-04-20 20:05 | 36.60596 | -77.91209 | 37248 ft | 474 kts | 13° |
| 2026-04-20 20:06 | 36.66771 | -77.88324 | 37254 ft | 472 kts | 14° |
| 2026-04-20 20:06 | 36.72914 | -77.85449 | 37241 ft | 472 kts | 14° |
| 2026-04-20 20:07 | 36.79064 | -77.82567 | 37235 ft | 472 kts | 14° |
| 2026-04-20 20:07 | 36.85221 | -77.79676 | 37236 ft | 472 kts | 14° |
| 2026-04-20 20:08 | 36.91298 | -77.76817 | 36766 ft | 466 kts | 13° |
| 2026-04-20 20:08 | 36.94332 | -77.75390 | 36125 ft | 465 kts | 13° |
| 2026-04-20 20:08 | 36.97347 | -77.73969 | 35543 ft | 462 kts | 13° |
| 2026-04-20 20:08 | 37.00348 | -77.72554 | 34986 ft | 459 kts | 12° |
| 2026-04-20 20:09 | 37.03332 | -77.71144 | 34437 ft | 456 kts | 12° |
| 2026-04-20 20:09 | 37.06291 | -77.69745 | 33769 ft | 454 kts | 12° |
| 2026-04-20 20:09 | 37.09240 | -77.68350 | 33049 ft | 453 kts | 12° |
| 2026-04-20 20:09 | 37.12194 | -77.66951 | 32243 ft | 454 kts | 12° |
| 2026-04-20 20:10 | 37.15146 | -77.65554 | 31548 ft | 452 kts | 12° |
| 2026-04-20 20:10 | 37.18079 | -77.64164 | 30965 ft | 448 kts | 12° |
| 2026-04-20 20:10 | 37.20984 | -77.62784 | 30423 ft | 444 kts | 12° |
| 2026-04-20 20:10 | 37.23860 | -77.61418 | 29794 ft | 441 kts | 12° |
| 2026-04-20 20:11 | 37.26722 | -77.60058 | 29184 ft | 437 kts | 12° |
| 2026-04-20 20:11 | 37.29547 | -77.58715 | 28629 ft | 432 kts | 11° |
| 2026-04-20 20:11 | 37.32349 | -77.57381 | 27967 ft | 432 kts | 11° |
| 2026-04-20 20:11 | 37.35156 | -77.56043 | 27360 ft | 430 kts | 11° |
| 2026-04-20 20:12 | 37.37940 | -77.54716 | 26820 ft | 425 kts | 11° |
| 2026-04-20 20:12 | 37.40679 | -77.53408 | 26216 ft | 417 kts | 11° |
| 2026-04-20 20:12 | 37.43381 | -77.52118 | 25481 ft | 413 kts | 11° |
| 2026-04-20 20:13 | 37.48696 | -77.49577 | 24035 ft | 406 kts | 10° |
| 2026-04-20 20:13 | 37.51327 | -77.48318 | 23225 ft | 404 kts | 10° |
| 2026-04-20 20:13 | 37.53922 | -77.47072 | 22793 ft | 392 kts | 9° |
| 2026-04-20 20:13 | 37.56434 | -77.45867 | 22323 ft | 381 kts | 9° |
| 2026-04-20 20:14 | 37.58859 | -77.44758 | 22143 ft | 359 kts | 2° |
| 2026-04-20 20:14 | 37.61287 | -77.44061 | 21843 ft | 360 kts | 1° |
| 2026-04-20 20:14 | 37.63726 | -77.43326 | 21542 ft | 361 kts | 1° |
| 2026-04-20 20:14 | 37.66164 | -77.42571 | 21243 ft | 360 kts | 2° |
| 2026-04-20 20:15 | 37.68589 | -77.41807 | 20940 ft | 357 kts | 2° |
| 2026-04-20 20:15 | 37.70963 | -77.41052 | 20796 ft | 346 kts | 1° |
| 2026-04-20 20:15 | 37.73265 | -77.40317 | 20667 ft | 336 kts | 1° |
| 2026-04-20 20:15 | 37.75539 | -77.39595 | 20526 ft | 343 kts | 1° |
| 2026-04-20 20:16 | 37.77879 | -77.38872 | 20389 ft | 349 kts | 1° |
| 2026-04-20 20:16 | 37.80228 | -77.38146 | 20265 ft | 353 kts | 1° |
| 2026-04-20 20:16 | 37.82618 | -77.37406 | 20149 ft | 354 kts | 1° |
| 2026-04-20 20:16 | 37.85005 | -77.36668 | 20035 ft | 354 kts | 1° |
| 2026-04-20 20:17 | 37.87390 | -77.35929 | 19934 ft | 353 kts | 1° |
| 2026-04-20 20:17 | 37.89778 | -77.35192 | 19729 ft | 352 kts | 1° |
| 2026-04-20 20:17 | 37.92145 | -77.34464 | 19372 ft | 348 kts | 1° |
| 2026-04-20 20:17 | 37.94499 | -77.33740 | 18893 ft | 348 kts | 1° |
| 2026-04-20 20:18 | 37.96861 | -77.33012 | 18357 ft | 350 kts | 2° |
| 2026-04-20 20:18 | 37.99231 | -77.32283 | 17743 ft | 352 kts | 3° |
| 2026-04-20 20:18 | 38.01614 | -77.31548 | 17016 ft | 355 kts | 3° |
| 2026-04-20 20:18 | 38.04027 | -77.30802 | 16352 ft | 358 kts | 4° |
| 2026-04-20 20:19 | 38.06448 | -77.30054 | 15748 ft | 358 kts | 4° |
| 2026-04-20 20:19 | 38.08876 | -77.29295 | 15066 ft | 361 kts | 5° |
| 2026-04-20 20:19 | 38.11303 | -77.28532 | 14525 ft | 355 kts | 5° |
| 2026-04-20 20:19 | 38.13669 | -77.27789 | 14025 ft | 346 kts | 5° |
| 2026-04-20 20:20 | 38.15981 | -77.27063 | 13431 ft | 339 kts | 5° |
| 2026-04-20 20:20 | 38.18253 | -77.26349 | 12870 ft | 333 kts | 6° |
| 2026-04-20 20:20 | 38.20477 | -77.25648 | 12331 ft | 327 kts | 7° |
| 2026-04-20 20:20 | 38.22677 | -77.24949 | 11706 ft | 324 kts | 7° |
| 2026-04-20 20:21 | 38.24853 | -77.24259 | 11151 ft | 320 kts | 7° |
| 2026-04-20 20:21 | 38.26999 | -77.23577 | 10609 ft | 316 kts | 8° |
| 2026-04-20 20:21 | 38.29118 | -77.22903 | 10051 ft | 310 kts | 8° |
| 2026-04-20 20:21 | 38.31128 | -77.22263 | 10018 ft | 285 kts | 7° |
| 2026-04-20 20:22 | 38.32374 | -77.21865 | 10022 ft | 273 kts | 8° |
| 2026-04-20 20:22 | 38.34654 | -77.20364 | 9567 ft | 288 kts | 36° |
| 2026-04-20 20:22 | 38.36154 | -77.18667 | 9000 ft | 289 kts | 36° |
| 2026-04-20 20:22 | 38.37657 | -77.16979 | 8414 ft | 287 kts | 37° |
| 2026-04-20 20:23 | 38.38659 | -77.15850 | 8079 ft | 280 kts | 37° |
| 2026-04-20 20:23 | 38.40494 | -77.13784 | 7684 ft | 256 kts | 37° |
| 2026-04-20 20:23 | 38.41394 | -77.12769 | 7528 ft | 254 kts | 37° |
| 2026-04-20 20:23 | 38.42692 | -77.11305 | 7266 ft | 250 kts | 37° |
| 2026-04-20 20:24 | 38.43977 | -77.09854 | 7001 ft | 243 kts | 37° |
| 2026-04-20 20:24 | 38.45224 | -77.08445 | 6774 ft | 235 kts | 37° |
| 2026-04-20 20:24 | 38.46429 | -77.07083 | 6535 ft | 228 kts | 37° |
| 2026-04-20 20:24 | 38.47590 | -77.05773 | 6328 ft | 221 kts | 37° |
| 2026-04-20 20:25 | 38.48736 | -77.04476 | 6140 ft | 218 kts | 36° |
| 2026-04-20 20:25 | 38.49862 | -77.03203 | 5891 ft | 214 kts | 37° |
| 2026-04-20 20:25 | 38.50943 | -77.01984 | 5699 ft | 200 kts | 34° |
| 2026-04-20 20:25 | 38.52139 | -77.01262 | 5406 ft | 190 kts | 9° |
| 2026-04-20 20:26 | 38.53492 | -77.01050 | 5201 ft | 202 kts | 2° |
| 2026-04-20 20:26 | 38.54921 | -77.00993 | 5031 ft | 210 kts | 356° |
| 2026-04-20 20:26 | 38.56413 | -77.01023 | 4821 ft | 216 kts | 355° |
| 2026-04-20 20:26 | 38.57912 | -77.01106 | 4574 ft | 215 kts | 354° |
| 2026-04-20 20:27 | 38.59390 | -77.01220 | 4360 ft | 205 kts | 353° |
| 2026-04-20 20:27 | 38.60703 | -77.01330 | 4187 ft | 171 kts | 352° |
| 2026-04-20 20:27 | 38.61779 | -77.01426 | 4050 ft | 145 kts | 351° |
| 2026-04-20 20:27 | 38.62770 | -77.01522 | 3887 ft | 141 kts | 351° |
| 2026-04-20 20:28 | 38.63718 | -77.01615 | 3714 ft | 133 kts | 350° |
| 2026-04-20 20:28 | 38.64620 | -77.01706 | 3582 ft | 130 kts | 350° |
| 2026-04-20 20:28 | 38.65522 | -77.01797 | 3452 ft | 130 kts | 351° |
| 2026-04-20 20:28 | 38.66423 | -77.01887 | 3336 ft | 129 kts | 350° |
| 2026-04-20 20:29 | 38.67313 | -77.01978 | 3208 ft | 128 kts | 351° |
| 2026-04-20 20:29 | 38.68203 | -77.02068 | 3071 ft | 128 kts | 351° |
| 2026-04-20 20:29 | 38.69093 | -77.02159 | 2936 ft | 130 kts | 351° |
| 2026-04-20 20:29 | 38.70010 | -77.02250 | 2805 ft | 133 kts | 350° |
| 2026-04-20 20:30 | 38.70947 | -77.02346 | 2632 ft | 136 kts | 351° |
| 2026-04-20 20:30 | 38.71883 | -77.02440 | 2454 ft | 136 kts | 351° |
| 2026-04-20 20:30 | 38.72831 | -77.02535 | 2274 ft | 137 kts | 351° |
| 2026-04-20 20:30 | 38.73775 | -77.02628 | 2120 ft | 135 kts | 351° |
| 2026-04-20 20:31 | 38.74712 | -77.02723 | 1940 ft | 135 kts | 351° |
| 2026-04-20 20:31 | 38.75646 | -77.02818 | 1748 ft | 135 kts | 351° |
| 2026-04-20 20:31 | 38.76583 | -77.02913 | 1561 ft | 135 kts | 352° |
| 2026-04-20 20:31 | 38.77525 | -77.03003 | 1388 ft | 136 kts | 352° |
| 2026-04-20 20:32 | 38.78453 | -77.03095 | 1197 ft | 132 kts | 352° |
| 2026-04-20 20:32 | 38.79371 | -77.03196 | 1035 ft | 133 kts | 353° |
| 2026-04-20 20:32 | 38.80302 | -77.03313 | 869 ft | 135 kts | 353° |
| 2026-04-20 20:32 | 38.81249 | -77.03355 | 680 ft | 134 kts | 354° |
| 2026-04-20 20:33 | 38.82177 | -77.03455 | 484 ft | 133 kts | 349° |
| 2026-04-20 20:33 | 38.83088 | -77.03553 | 273 ft | 132 kts | 353° |
| 2026-04-20 20:33 | 38.84008 | -77.03660 | 107 ft | 132 kts | 353° |
| 2026-04-20 20:33 | 38.84846 | -77.03750 | 29 ft | 100 kts | 349° |
| 2026-04-20 20:34 | 38.85361 | -77.03804 | 28 ft | 51 kts | 0° |
| 2026-04-20 20:34 | 38.85515 | -77.03891 | 29 ft | 19 kts | 284° |
| 2026-04-20 20:34 | 38.85515 | -77.03913 | 28 ft | 0 kts | 258° |
| 2026-04-20 20:34 | 38.85515 | -77.03923 | 28 ft | 3 kts | 278° |
| 2026-04-20 20:35 | 38.85539 | -77.03953 | 27 ft | 7 kts | 323° |
| 2026-04-20 20:35 | 38.85555 | -77.03995 | 27 ft | 2 kts | 271° |
| 2026-04-20 20:35 | 38.85547 | -77.04036 | 27 ft | 8 kts | 238° |
| 2026-04-20 20:35 | 38.85495 | -77.04093 | 27 ft | 10 kts | 217° |
| 2026-04-20 20:36 | 38.85486 | -77.04102 | 27 ft | 0 kts | 217° |